sensor_id;sensor_type;location;lat;lon;timestamp;P1;durP1;ratioP1;P2;durP2;ratioP2
71648;SDS011;59492;45.638;11.714;2022-12-29T00:01:16;18.60;;;12.20;;
71648;SDS011;59492;45.638;11.714;2022-12-29T00:03:42;16.00;;;12.50;;
71648;SDS011;59492;45.638;11.714;2022-12-29T00:06:11;16.00;;;11.50;;
71648;SDS011;59492;45.638;11.714;2022-12-29T00:08:36;17.00;;;12.90;;
71648;SDS011;59492;45.638;11.714;2022-12-29T00:11:26;16.80;;;12.80;;
71648;SDS011;59492;45.638;11.714;2022-12-29T00:13:52;14.80;;;10.60;;
71648;SDS011;59492;45.638;11.714;2022-12-29T00:16:37;15.20;;;11.80;;
71648;SDS011;59492;45.638;11.714;2022-12-29T00:19:05;15.60;;;11.60;;
71648;SDS011;59492;45.638;11.714;2022-12-29T00:21:31;18.30;;;12.70;;
71648;SDS011;59492;45.638;11.714;2022-12-29T00:24:17;15.90;;;12.00;;
71648;SDS011;59492;45.638;11.714;2022-12-29T00:29:45;15.10;;;11.80;;
71648;SDS011;59492;45.638;11.714;2022-12-29T00:32:29;16.70;;;11.70;;
71648;SDS011;59492;45.638;11.714;2022-12-29T00:35:21;14.80;;;11.10;;
71648;SDS011;59492;45.638;11.714;2022-12-29T00:38:00;14.30;;;11.30;;
71648;SDS011;59492;45.638;11.714;2022-12-29T00:40:47;16.90;;;12.30;;
71648;SDS011;59492;45.638;11.714;2022-12-29T00:43:31;17.70;;;13.00;;
71648;SDS011;59492;45.638;11.714;2022-12-29T00:46:15;15.20;;;11.70;;
71648;SDS011;59492;45.638;11.714;2022-12-29T00:48:41;15.90;;;12.10;;
71648;SDS011;59492;45.638;11.714;2022-12-29T00:51:25;16.00;;;12.40;;
71648;SDS011;59492;45.638;11.714;2022-12-29T00:53:51;17.70;;;11.90;;
71648;SDS011;59492;45.638;11.714;2022-12-29T00:56:16;14.50;;;11.10;;
71648;SDS011;59492;45.638;11.714;2022-12-29T00:58:42;16.90;;;12.60;;
71648;SDS011;59492;45.638;11.714;2022-12-29T01:01:08;15.60;;;12.00;;
71648;SDS011;59492;45.638;11.714;2022-12-29T01:03:34;16.50;;;12.60;;
71648;SDS011;59492;45.638;11.714;2022-12-29T01:06:04;16.70;;;12.40;;
71648;SDS011;59492;45.638;11.714;2022-12-29T01:08:32;15.90;;;12.10;;
71648;SDS011;59492;45.638;11.714;2022-12-29T01:11:05;17.00;;;11.70;;
71648;SDS011;59492;45.638;11.714;2022-12-29T01:13:33;15.20;;;11.60;;
71648;SDS011;59492;45.638;11.714;2022-12-29T01:15:59;15.30;;;11.10;;
71648;SDS011;59492;45.638;11.714;2022-12-29T01:18:24;15.30;;;11.60;;
71648;SDS011;59492;45.638;11.714;2022-12-29T01:20:51;14.60;;;11.80;;
71648;SDS011;59492;45.638;11.714;2022-12-29T01:23:22;13.50;;;10.80;;
71648;SDS011;59492;45.638;11.714;2022-12-29T01:25:48;16.10;;;12.30;;
71648;SDS011;59492;45.638;11.714;2022-12-29T01:28:14;14.50;;;11.70;;
71648;SDS011;59492;45.638;11.714;2022-12-29T01:30:39;14.90;;;11.70;;
71648;SDS011;59492;45.638;11.714;2022-12-29T01:33:05;13.70;;;11.40;;
71648;SDS011;59492;45.638;11.714;2022-12-29T01:35:30;13.90;;;10.50;;
71648;SDS011;59492;45.638;11.714;2022-12-29T01:37:56;14.50;;;11.70;;
71648;SDS011;59492;45.638;11.714;2022-12-29T01:40:21;16.40;;;11.30;;
71648;SDS011;59492;45.638;11.714;2022-12-29T01:42:47;16.30;;;12.50;;
71648;SDS011;59492;45.638;11.714;2022-12-29T01:45:13;16.50;;;11.70;;
71648;SDS011;59492;45.638;11.714;2022-12-29T01:47:47;16.80;;;12.40;;
71648;SDS011;59492;45.638;11.714;2022-12-29T01:50:40;14.20;;;11.50;;
71648;SDS011;59492;45.638;11.714;2022-12-29T01:53:17;16.80;;;12.20;;
71648;SDS011;59492;45.638;11.714;2022-12-29T01:55:48;13.10;;;11.10;;
71648;SDS011;59492;45.638;11.714;2022-12-29T01:58:17;12.90;;;10.60;;
71648;SDS011;59492;45.638;11.714;2022-12-29T02:00:46;14.00;;;10.80;;
71648;SDS011;59492;45.638;11.714;2022-12-29T02:03:12;15.00;;;11.90;;
71648;SDS011;59492;45.638;11.714;2022-12-29T02:06:12;15.50;;;11.90;;
71648;SDS011;59492;45.638;11.714;2022-12-29T02:08:34;14.70;;;11.50;;
71648;SDS011;59492;45.638;11.714;2022-12-29T02:11:01;13.10;;;11.20;;
71648;SDS011;59492;45.638;11.714;2022-12-29T02:13:28;12.90;;;11.10;;
71648;SDS011;59492;45.638;11.714;2022-12-29T02:35:20;15.30;;;10.50;;
71648;SDS011;59492;45.638;11.714;2022-12-29T02:40:44;15.40;;;11.30;;
71648;SDS011;59492;45.638;11.714;2022-12-29T02:43:24;18.50;;;12.50;;
71648;SDS011;59492;45.638;11.714;2022-12-29T02:46:04;15.00;;;11.10;;
71648;SDS011;59492;45.638;11.714;2022-12-29T02:48:39;15.00;;;11.30;;
71648;SDS011;59492;45.638;11.714;2022-12-29T02:51:15;15.70;;;12.10;;
71648;SDS011;59492;45.638;11.714;2022-12-29T02:53:46;17.00;;;11.30;;
71648;SDS011;59492;45.638;11.714;2022-12-29T02:56:30;15.40;;;10.70;;
71648;SDS011;59492;45.638;11.714;2022-12-29T02:58:56;14.20;;;11.50;;
71648;SDS011;59492;45.638;11.714;2022-12-29T03:01:23;15.10;;;11.30;;
71648;SDS011;59492;45.638;11.714;2022-12-29T03:03:56;13.90;;;10.90;;
71648;SDS011;59492;45.638;11.714;2022-12-29T03:06:52;16.30;;;11.90;;
71648;SDS011;59492;45.638;11.714;2022-12-29T03:09:36;19.00;;;12.40;;
71648;SDS011;59492;45.638;11.714;2022-12-29T03:15:12;12.00;;;9.70;;
71648;SDS011;59492;45.638;11.714;2022-12-29T03:18:15;16.10;;;11.30;;
71648;SDS011;59492;45.638;11.714;2022-12-29T03:23:12;16.10;;;11.70;;
71648;SDS011;59492;45.638;11.714;2022-12-29T03:25:40;15.50;;;10.80;;
71648;SDS011;59492;45.638;11.714;2022-12-29T03:28:12;14.90;;;11.40;;
71648;SDS011;59492;45.638;11.714;2022-12-29T03:30:42;15.60;;;11.80;;
71648;SDS011;59492;45.638;11.714;2022-12-29T03:33:11;12.20;;;10.70;;
71648;SDS011;59492;45.638;11.714;2022-12-29T03:35:40;15.80;;;11.50;;
71648;SDS011;59492;45.638;11.714;2022-12-29T03:40:51;14.70;;;10.60;;
71648;SDS011;59492;45.638;11.714;2022-12-29T03:43:19;14.60;;;10.90;;
71648;SDS011;59492;45.638;11.714;2022-12-29T03:45:45;15.70;;;11.50;;
71648;SDS011;59492;45.638;11.714;2022-12-29T03:48:10;12.90;;;10.60;;
71648;SDS011;59492;45.638;11.714;2022-12-29T03:50:36;14.50;;;11.70;;
71648;SDS011;59492;45.638;11.714;2022-12-29T03:53:02;14.90;;;11.90;;
71648;SDS011;59492;45.638;11.714;2022-12-29T03:55:27;14.20;;;11.30;;
71648;SDS011;59492;45.638;11.714;2022-12-29T03:57:53;16.10;;;11.20;;
71648;SDS011;59492;45.638;11.714;2022-12-29T04:00:18;14.70;;;10.60;;
71648;SDS011;59492;45.638;11.714;2022-12-29T04:02:44;12.60;;;10.60;;
71648;SDS011;59492;45.638;11.714;2022-12-29T04:05:09;16.40;;;12.10;;
71648;SDS011;59492;45.638;11.714;2022-12-29T04:07:35;15.50;;;11.20;;
71648;SDS011;59492;45.638;11.714;2022-12-29T04:10:00;15.70;;;11.60;;
71648;SDS011;59492;45.638;11.714;2022-12-29T04:12:26;14.50;;;11.40;;
71648;SDS011;59492;45.638;11.714;2022-12-29T04:14:52;14.50;;;11.00;;
71648;SDS011;59492;45.638;11.714;2022-12-29T04:17:17;14.30;;;10.20;;
71648;SDS011;59492;45.638;11.714;2022-12-29T04:19:44;11.50;;;9.70;;
71648;SDS011;59492;45.638;11.714;2022-12-29T04:22:09;14.70;;;11.20;;
71648;SDS011;59492;45.638;11.714;2022-12-29T04:24:36;14.90;;;11.10;;
71648;SDS011;59492;45.638;11.714;2022-12-29T04:27:02;15.90;;;11.40;;
71648;SDS011;59492;45.638;11.714;2022-12-29T04:29:28;15.50;;;11.70;;
71648;SDS011;59492;45.638;11.714;2022-12-29T04:31:53;12.00;;;10.50;;
71648;SDS011;59492;45.638;11.714;2022-12-29T04:34:19;15.10;;;11.50;;
71648;SDS011;59492;45.638;11.714;2022-12-29T04:36:44;13.10;;;10.70;;
71648;SDS011;59492;45.638;11.714;2022-12-29T04:39:10;13.80;;;11.10;;
71648;SDS011;59492;45.638;11.714;2022-12-29T04:41:35;11.60;;;10.10;;
71648;SDS011;59492;45.638;11.714;2022-12-29T04:44:01;15.50;;;10.80;;
71648;SDS011;59492;45.638;11.714;2022-12-29T04:46:27;13.00;;;10.30;;
71648;SDS011;59492;45.638;11.714;2022-12-29T04:48:52;13.60;;;10.80;;
71648;SDS011;59492;45.638;11.714;2022-12-29T04:51:18;12.90;;;10.50;;
71648;SDS011;59492;45.638;11.714;2022-12-29T04:53:43;16.00;;;10.40;;
71648;SDS011;59492;45.638;11.714;2022-12-29T04:56:09;15.90;;;11.50;;
71648;SDS011;59492;45.638;11.714;2022-12-29T04:58:35;13.20;;;10.60;;
71648;SDS011;59492;45.638;11.714;2022-12-29T05:01:01;12.60;;;10.10;;
71648;SDS011;59492;45.638;11.714;2022-12-29T05:03:26;14.60;;;10.90;;
71648;SDS011;59492;45.638;11.714;2022-12-29T05:05:55;15.80;;;10.50;;
71648;SDS011;59492;45.638;11.714;2022-12-29T05:08:21;14.30;;;10.80;;
71648;SDS011;59492;45.638;11.714;2022-12-29T05:10:49;13.50;;;11.10;;
71648;SDS011;59492;45.638;11.714;2022-12-29T05:13:16;13.10;;;10.70;;
71648;SDS011;59492;45.638;11.714;2022-12-29T05:15:45;13.10;;;10.80;;
71648;SDS011;59492;45.638;11.714;2022-12-29T05:18:14;12.90;;;10.90;;
71648;SDS011;59492;45.638;11.714;2022-12-29T05:20:40;12.90;;;10.20;;
71648;SDS011;59492;45.638;11.714;2022-12-29T05:23:05;11.80;;;9.50;;
71648;SDS011;59492;45.638;11.714;2022-12-29T05:25:31;12.00;;;9.90;;
71648;SDS011;59492;45.638;11.714;2022-12-29T05:27:56;13.60;;;10.10;;
71648;SDS011;59492;45.638;11.714;2022-12-29T05:30:22;12.90;;;10.70;;
71648;SDS011;59492;45.638;11.714;2022-12-29T05:32:47;13.10;;;10.70;;
71648;SDS011;59492;45.638;11.714;2022-12-29T05:35:13;13.40;;;10.50;;
71648;SDS011;59492;45.638;11.714;2022-12-29T05:37:38;13.30;;;10.70;;
71648;SDS011;59492;45.638;11.714;2022-12-29T05:40:04;11.90;;;9.70;;
71648;SDS011;59492;45.638;11.714;2022-12-29T05:42:30;11.30;;;10.00;;
71648;SDS011;59492;45.638;11.714;2022-12-29T05:44:56;13.60;;;11.00;;
71648;SDS011;59492;45.638;11.714;2022-12-29T05:47:21;12.90;;;11.20;;
71648;SDS011;59492;45.638;11.714;2022-12-29T05:49:47;12.90;;;10.10;;
71648;SDS011;59492;45.638;11.714;2022-12-29T05:52:12;13.80;;;11.20;;
71648;SDS011;59492;45.638;11.714;2022-12-29T05:54:38;15.00;;;11.20;;
71648;SDS011;59492;45.638;11.714;2022-12-29T05:57:03;14.90;;;11.30;;
71648;SDS011;59492;45.638;11.714;2022-12-29T05:59:29;11.80;;;9.90;;
71648;SDS011;59492;45.638;11.714;2022-12-29T06:01:54;12.20;;;10.00;;
71648;SDS011;59492;45.638;11.714;2022-12-29T06:04:20;12.80;;;10.00;;
71648;SDS011;59492;45.638;11.714;2022-12-29T06:06:46;15.00;;;10.50;;
71648;SDS011;59492;45.638;11.714;2022-12-29T06:09:11;12.80;;;10.40;;
71648;SDS011;59492;45.638;11.714;2022-12-29T06:11:37;15.80;;;10.90;;
71648;SDS011;59492;45.638;11.714;2022-12-29T06:14:02;12.60;;;10.10;;
71648;SDS011;59492;45.638;11.714;2022-12-29T06:16:28;14.00;;;10.90;;
71648;SDS011;59492;45.638;11.714;2022-12-29T06:18:53;11.40;;;9.70;;
71648;SDS011;59492;45.638;11.714;2022-12-29T06:21:19;12.10;;;9.60;;
71648;SDS011;59492;45.638;11.714;2022-12-29T06:23:45;11.90;;;10.30;;
71648;SDS011;59492;45.638;11.714;2022-12-29T06:26:10;12.80;;;10.20;;
71648;SDS011;59492;45.638;11.714;2022-12-29T06:28:36;12.40;;;10.20;;
71648;SDS011;59492;45.638;11.714;2022-12-29T06:31:01;11.90;;;10.20;;
71648;SDS011;59492;45.638;11.714;2022-12-29T06:33:28;12.90;;;10.40;;
71648;SDS011;59492;45.638;11.714;2022-12-29T06:35:54;12.40;;;10.20;;
71648;SDS011;59492;45.638;11.714;2022-12-29T06:38:19;17.70;;;9.30;;
71648;SDS011;59492;45.638;11.714;2022-12-29T06:40:45;11.60;;;10.20;;
71648;SDS011;59492;45.638;11.714;2022-12-29T06:43:10;12.20;;;9.90;;
71648;SDS011;59492;45.638;11.714;2022-12-29T06:45:37;12.50;;;10.00;;
71648;SDS011;59492;45.638;11.714;2022-12-29T06:48:05;11.40;;;9.90;;
71648;SDS011;59492;45.638;11.714;2022-12-29T06:50:31;12.70;;;10.50;;
71648;SDS011;59492;45.638;11.714;2022-12-29T06:52:56;13.60;;;9.60;;
71648;SDS011;59492;45.638;11.714;2022-12-29T06:55:22;14.60;;;11.60;;
71648;SDS011;59492;45.638;11.714;2022-12-29T06:57:47;13.40;;;9.60;;
71648;SDS011;59492;45.638;11.714;2022-12-29T07:00:13;10.40;;;8.60;;
71648;SDS011;59492;45.638;11.714;2022-12-29T07:02:39;13.10;;;9.70;;
71648;SDS011;59492;45.638;11.714;2022-12-29T07:05:05;11.30;;;9.90;;
71648;SDS011;59492;45.638;11.714;2022-12-29T07:07:32;13.50;;;10.20;;
71648;SDS011;59492;45.638;11.714;2022-12-29T07:09:58;13.20;;;10.80;;
71648;SDS011;59492;45.638;11.714;2022-12-29T07:12:23;12.70;;;9.60;;
71648;SDS011;59492;45.638;11.714;2022-12-29T07:14:49;13.00;;;10.10;;
71648;SDS011;59492;45.638;11.714;2022-12-29T07:17:15;11.90;;;9.30;;
71648;SDS011;59492;45.638;11.714;2022-12-29T07:19:41;11.30;;;8.90;;
71648;SDS011;59492;45.638;11.714;2022-12-29T07:22:06;13.50;;;9.90;;
71648;SDS011;59492;45.638;11.714;2022-12-29T07:24:33;12.40;;;10.10;;
71648;SDS011;59492;45.638;11.714;2022-12-29T07:26:59;11.40;;;9.80;;
71648;SDS011;59492;45.638;11.714;2022-12-29T07:29:25;11.80;;;9.70;;
71648;SDS011;59492;45.638;11.714;2022-12-29T07:31:51;12.20;;;10.00;;
71648;SDS011;59492;45.638;11.714;2022-12-29T07:34:17;14.10;;;9.60;;
71648;SDS011;59492;45.638;11.714;2022-12-29T07:36:42;11.30;;;9.60;;
71648;SDS011;59492;45.638;11.714;2022-12-29T07:39:08;11.40;;;9.70;;
71648;SDS011;59492;45.638;11.714;2022-12-29T07:41:33;13.50;;;9.90;;
71648;SDS011;59492;45.638;11.714;2022-12-29T07:44:00;13.60;;;10.40;;
71648;SDS011;59492;45.638;11.714;2022-12-29T07:46:25;13.10;;;9.80;;
71648;SDS011;59492;45.638;11.714;2022-12-29T07:48:51;14.90;;;10.70;;
71648;SDS011;59492;45.638;11.714;2022-12-29T07:51:17;14.10;;;10.70;;
71648;SDS011;59492;45.638;11.714;2022-12-29T07:53:43;11.30;;;9.40;;
71648;SDS011;59492;45.638;11.714;2022-12-29T07:56:08;12.40;;;9.50;;
71648;SDS011;59492;45.638;11.714;2022-12-29T07:58:34;13.70;;;10.10;;
71648;SDS011;59492;45.638;11.714;2022-12-29T08:00:59;10.50;;;9.40;;
71648;SDS011;59492;45.638;11.714;2022-12-29T08:03:26;15.70;;;9.30;;
71648;SDS011;59492;45.638;11.714;2022-12-29T08:06:02;14.30;;;10.30;;
71648;SDS011;59492;45.638;11.714;2022-12-29T08:08:32;10.90;;;9.00;;
71648;SDS011;59492;45.638;11.714;2022-12-29T08:10:58;11.70;;;8.80;;
71648;SDS011;59492;45.638;11.714;2022-12-29T08:13:24;12.80;;;8.90;;
71648;SDS011;59492;45.638;11.714;2022-12-29T08:15:51;9.70;;;8.70;;
71648;SDS011;59492;45.638;11.714;2022-12-29T08:18:17;9.80;;;8.70;;
71648;SDS011;59492;45.638;11.714;2022-12-29T08:20:43;13.20;;;9.30;;
71648;SDS011;59492;45.638;11.714;2022-12-29T08:23:08;12.90;;;9.70;;
71648;SDS011;59492;45.638;11.714;2022-12-29T08:25:34;12.30;;;9.70;;
71648;SDS011;59492;45.638;11.714;2022-12-29T08:27:59;12.30;;;9.80;;
71648;SDS011;59492;45.638;11.714;2022-12-29T08:30:25;12.60;;;9.30;;
71648;SDS011;59492;45.638;11.714;2022-12-29T08:32:51;13.50;;;10.00;;
71648;SDS011;59492;45.638;11.714;2022-12-29T08:35:17;12.60;;;8.80;;
71648;SDS011;59492;45.638;11.714;2022-12-29T08:37:44;12.50;;;8.60;;
71648;SDS011;59492;45.638;11.714;2022-12-29T08:40:10;11.10;;;9.10;;
71648;SDS011;59492;45.638;11.714;2022-12-29T08:42:36;11.80;;;9.60;;
71648;SDS011;59492;45.638;11.714;2022-12-29T08:45:01;11.60;;;9.60;;
71648;SDS011;59492;45.638;11.714;2022-12-29T08:47:28;17.50;;;9.50;;
71648;SDS011;59492;45.638;11.714;2022-12-29T08:49:53;12.00;;;9.90;;
71648;SDS011;59492;45.638;11.714;2022-12-29T08:52:19;11.40;;;9.60;;
71648;SDS011;59492;45.638;11.714;2022-12-29T08:54:48;13.10;;;9.10;;
71648;SDS011;59492;45.638;11.714;2022-12-29T08:57:14;11.10;;;8.60;;
71648;SDS011;59492;45.638;11.714;2022-12-29T08:59:40;11.30;;;9.10;;
71648;SDS011;59492;45.638;11.714;2022-12-29T09:02:10;9.70;;;8.50;;
71648;SDS011;59492;45.638;11.714;2022-12-29T09:04:38;11.50;;;8.70;;
71648;SDS011;59492;45.638;11.714;2022-12-29T09:07:04;13.80;;;9.10;;
71648;SDS011;59492;45.638;11.714;2022-12-29T09:09:31;11.70;;;9.30;;
71648;SDS011;59492;45.638;11.714;2022-12-29T09:11:57;10.30;;;9.00;;
71648;SDS011;59492;45.638;11.714;2022-12-29T09:14:24;11.50;;;9.40;;
71648;SDS011;59492;45.638;11.714;2022-12-29T09:16:59;20.80;;;10.10;;
71648;SDS011;59492;45.638;11.714;2022-12-29T09:19:51;13.50;;;8.70;;
71648;SDS011;59492;45.638;11.714;2022-12-29T09:22:24;13.40;;;8.00;;
71648;SDS011;59492;45.638;11.714;2022-12-29T09:24:51;14.60;;;8.40;;
71648;SDS011;59492;45.638;11.714;2022-12-29T09:27:27;16.10;;;9.20;;
71648;SDS011;59492;45.638;11.714;2022-12-29T09:30:10;12.30;;;9.40;;
71648;SDS011;59492;45.638;11.714;2022-12-29T09:32:42;14.90;;;9.70;;
71648;SDS011;59492;45.638;11.714;2022-12-29T09:35:16;17.10;;;10.40;;
71648;SDS011;59492;45.638;11.714;2022-12-29T09:37:45;13.90;;;10.60;;
71648;SDS011;59492;45.638;11.714;2022-12-29T09:40:20;15.40;;;9.80;;
71648;SDS011;59492;45.638;11.714;2022-12-29T09:48:29;19.60;;;13.80;;
71648;SDS011;59492;45.638;11.714;2022-12-29T09:50:59;17.80;;;13.40;;
71648;SDS011;59492;45.638;11.714;2022-12-29T09:56:11;17.30;;;13.50;;
71648;SDS011;59492;45.638;11.714;2022-12-29T10:01:44;23.90;;;13.70;;
71648;SDS011;59492;45.638;11.714;2022-12-29T10:04:15;15.40;;;12.40;;
71648;SDS011;59492;45.638;11.714;2022-12-29T10:09:38;23.30;;;14.40;;
71648;SDS011;59492;45.638;11.714;2022-12-29T10:12:17;25.10;;;14.50;;
71648;SDS011;59492;45.638;11.714;2022-12-29T10:14:57;20.10;;;13.80;;
71648;SDS011;59492;45.638;11.714;2022-12-29T10:23:53;18.30;;;13.70;;
71648;SDS011;59492;45.638;11.714;2022-12-29T10:26:22;20.50;;;14.30;;
71648;SDS011;59492;45.638;11.714;2022-12-29T10:31:38;18.30;;;13.30;;
71648;SDS011;59492;45.638;11.714;2022-12-29T10:34:29;21.70;;;14.10;;
71648;SDS011;59492;45.638;11.714;2022-12-29T10:37:04;15.10;;;11.90;;
71648;SDS011;59492;45.638;11.714;2022-12-29T10:39:44;19.20;;;12.20;;
71648;SDS011;59492;45.638;11.714;2022-12-29T10:44:55;18.00;;;13.50;;
71648;SDS011;59492;45.638;11.714;2022-12-29T10:47:24;18.70;;;14.30;;
71648;SDS011;59492;45.638;11.714;2022-12-29T10:49:53;21.50;;;14.70;;
71648;SDS011;59492;45.638;11.714;2022-12-29T10:52:19;17.10;;;14.20;;
71648;SDS011;59492;45.638;11.714;2022-12-29T10:59:53;21.30;;;12.70;;
71648;SDS011;59492;45.638;11.714;2022-12-29T11:07:40;17.60;;;13.80;;
71648;SDS011;59492;45.638;11.714;2022-12-29T11:10:15;22.00;;;14.50;;
71648;SDS011;59492;45.638;11.714;2022-12-29T11:12:56;20.50;;;13.50;;
71648;SDS011;59492;45.638;11.714;2022-12-29T11:15:23;19.90;;;13.40;;
71648;SDS011;59492;45.638;11.714;2022-12-29T11:17:51;19.00;;;12.50;;
71648;SDS011;59492;45.638;11.714;2022-12-29T11:22:54;16.70;;;12.30;;
71648;SDS011;59492;45.638;11.714;2022-12-29T11:25:20;18.70;;;12.90;;
71648;SDS011;59492;45.638;11.714;2022-12-29T11:27:55;16.90;;;13.30;;
71648;SDS011;59492;45.638;11.714;2022-12-29T11:30:37;17.10;;;12.60;;
71648;SDS011;59492;45.638;11.714;2022-12-29T11:33:03;16.10;;;12.90;;
71648;SDS011;59492;45.638;11.714;2022-12-29T11:35:30;18.30;;;13.40;;
71648;SDS011;59492;45.638;11.714;2022-12-29T11:38:01;18.30;;;12.40;;
71648;SDS011;59492;45.638;11.714;2022-12-29T11:40:27;20.00;;;13.60;;
71648;SDS011;59492;45.638;11.714;2022-12-29T11:42:54;14.80;;;11.90;;
71648;SDS011;59492;45.638;11.714;2022-12-29T11:45:29;14.90;;;11.80;;
71648;SDS011;59492;45.638;11.714;2022-12-29T11:48:01;14.40;;;12.30;;
71648;SDS011;59492;45.638;11.714;2022-12-29T11:50:33;15.90;;;11.90;;
71648;SDS011;59492;45.638;11.714;2022-12-29T11:53:17;15.60;;;12.20;;
71648;SDS011;59492;45.638;11.714;2022-12-29T11:55:52;15.60;;;12.00;;
71648;SDS011;59492;45.638;11.714;2022-12-29T11:58:27;13.90;;;11.80;;
71648;SDS011;59492;45.638;11.714;2022-12-29T12:00:54;17.10;;;12.60;;
71648;SDS011;59492;45.638;11.714;2022-12-29T12:03:23;13.50;;;11.90;;
71648;SDS011;59492;45.638;11.714;2022-12-29T12:05:52;13.90;;;11.40;;
71648;SDS011;59492;45.638;11.714;2022-12-29T12:08:36;13.70;;;11.20;;
71648;SDS011;59492;45.638;11.714;2022-12-29T12:11:09;14.20;;;10.90;;
71648;SDS011;59492;45.638;11.714;2022-12-29T12:16:12;14.60;;;12.20;;
71648;SDS011;59492;45.638;11.714;2022-12-29T12:18:57;14.90;;;12.20;;
71648;SDS011;59492;45.638;11.714;2022-12-29T12:21:32;14.20;;;11.00;;
71648;SDS011;59492;45.638;11.714;2022-12-29T12:32:44;12.90;;;10.10;;
71648;SDS011;59492;45.638;11.714;2022-12-29T12:38:07;14.30;;;11.40;;
71648;SDS011;59492;45.638;11.714;2022-12-29T12:43:35;14.40;;;11.60;;
71648;SDS011;59492;45.638;11.714;2022-12-29T12:46:17;14.10;;;11.30;;
71648;SDS011;59492;45.638;11.714;2022-12-29T12:54:13;13.90;;;11.00;;
71648;SDS011;59492;45.638;11.714;2022-12-29T13:18:16;13.30;;;10.00;;
71648;SDS011;59492;45.638;11.714;2022-12-29T13:21:07;13.00;;;9.80;;
71648;SDS011;59492;45.638;11.714;2022-12-29T13:23:47;14.40;;;10.50;;
71648;SDS011;59492;45.638;11.714;2022-12-29T13:36:54;13.40;;;10.00;;
71648;SDS011;59492;45.638;11.714;2022-12-29T13:41:59;11.90;;;10.00;;
71648;SDS011;59492;45.638;11.714;2022-12-29T13:44:30;20.90;;;10.80;;
71648;SDS011;59492;45.638;11.714;2022-12-29T13:47:25;13.80;;;10.80;;
71648;SDS011;59492;45.638;11.714;2022-12-29T13:50:14;14.40;;;10.50;;
71648;SDS011;59492;45.638;11.714;2022-12-29T13:53:08;11.70;;;10.00;;
71648;SDS011;59492;45.638;11.714;2022-12-29T13:58:31;10.80;;;9.10;;
71648;SDS011;59492;45.638;11.714;2022-12-29T14:01:03;11.20;;;9.40;;
71648;SDS011;59492;45.638;11.714;2022-12-29T14:06:20;13.00;;;9.80;;
71648;SDS011;59492;45.638;11.714;2022-12-29T14:08:50;13.60;;;10.20;;
71648;SDS011;59492;45.638;11.714;2022-12-29T14:11:20;15.50;;;10.10;;
71648;SDS011;59492;45.638;11.714;2022-12-29T14:13:49;12.90;;;10.20;;
71648;SDS011;59492;45.638;11.714;2022-12-29T14:16:29;14.20;;;9.30;;
71648;SDS011;59492;45.638;11.714;2022-12-29T14:19:18;11.90;;;9.80;;
71648;SDS011;59492;45.638;11.714;2022-12-29T14:21:55;13.30;;;9.50;;
71648;SDS011;59492;45.638;11.714;2022-12-29T14:33:00;12.90;;;10.20;;
71648;SDS011;59492;45.638;11.714;2022-12-29T14:34:57;14.00;;;10.30;;
71648;SDS011;59492;45.638;11.714;2022-12-29T14:42:46;13.50;;;8.90;;
71648;SDS011;59492;45.638;11.714;2022-12-29T14:47:43;12.30;;;9.70;;
71648;SDS011;59492;45.638;11.714;2022-12-29T14:57:50;13.20;;;9.80;;
71648;SDS011;59492;45.638;11.714;2022-12-29T15:00:18;14.40;;;10.00;;
71648;SDS011;59492;45.638;11.714;2022-12-29T15:02:50;14.60;;;9.60;;
71648;SDS011;59492;45.638;11.714;2022-12-29T15:05:30;12.20;;;8.50;;
71648;SDS011;59492;45.638;11.714;2022-12-29T15:08:00;13.00;;;9.80;;
71648;SDS011;59492;45.638;11.714;2022-12-29T15:10:31;11.80;;;9.30;;
71648;SDS011;59492;45.638;11.714;2022-12-29T15:13:02;18.00;;;10.50;;
71648;SDS011;59492;45.638;11.714;2022-12-29T15:15:35;13.30;;;9.70;;
71648;SDS011;59492;45.638;11.714;2022-12-29T15:21:05;12.60;;;9.30;;
71648;SDS011;59492;45.638;11.714;2022-12-29T15:23:32;11.20;;;9.50;;
71648;SDS011;59492;45.638;11.714;2022-12-29T15:26:01;12.50;;;8.60;;
71648;SDS011;59492;45.638;11.714;2022-12-29T15:28:39;12.60;;;9.70;;
71648;SDS011;59492;45.638;11.714;2022-12-29T15:31:06;13.20;;;9.80;;
71648;SDS011;59492;45.638;11.714;2022-12-29T15:33:37;12.90;;;9.80;;
71648;SDS011;59492;45.638;11.714;2022-12-29T15:36:09;13.40;;;10.50;;
71648;SDS011;59492;45.638;11.714;2022-12-29T15:38:37;15.10;;;10.30;;
71648;SDS011;59492;45.638;11.714;2022-12-29T15:41:12;13.20;;;10.00;;
71648;SDS011;59492;45.638;11.714;2022-12-29T15:46:40;13.10;;;9.50;;
71648;SDS011;59492;45.638;11.714;2022-12-29T15:49:06;12.40;;;9.70;;
71648;SDS011;59492;45.638;11.714;2022-12-29T15:51:35;12.10;;;9.80;;
71648;SDS011;59492;45.638;11.714;2022-12-29T15:54:03;13.10;;;9.80;;
71648;SDS011;59492;45.638;11.714;2022-12-29T15:56:31;13.10;;;10.40;;
71648;SDS011;59492;45.638;11.714;2022-12-29T15:59:02;13.40;;;10.40;;
71648;SDS011;59492;45.638;11.714;2022-12-29T16:01:33;14.10;;;10.60;;
71648;SDS011;59492;45.638;11.714;2022-12-29T16:04:03;13.90;;;10.00;;
71648;SDS011;59492;45.638;11.714;2022-12-29T16:06:32;14.30;;;9.50;;
71648;SDS011;59492;45.638;11.714;2022-12-29T16:09:06;11.80;;;8.30;;
71648;SDS011;59492;45.638;11.714;2022-12-29T16:11:58;11.80;;;9.80;;
71648;SDS011;59492;45.638;11.714;2022-12-29T16:14:30;23.10;;;10.20;;
71648;SDS011;59492;45.638;11.714;2022-12-29T16:17:20;13.50;;;10.00;;
71648;SDS011;59492;45.638;11.714;2022-12-29T16:19:49;13.50;;;10.50;;
71648;SDS011;59492;45.638;11.714;2022-12-29T16:22:24;15.10;;;10.10;;
71648;SDS011;59492;45.638;11.714;2022-12-29T16:28:01;16.20;;;10.00;;
71648;SDS011;59492;45.638;11.714;2022-12-29T16:31:19;12.40;;;9.30;;
71648;SDS011;59492;45.638;11.714;2022-12-29T16:34:11;13.70;;;10.20;;
71648;SDS011;59492;45.638;11.714;2022-12-29T16:37:33;14.10;;;10.10;;
71648;SDS011;59492;45.638;11.714;2022-12-29T16:39:56;16.80;;;10.10;;
71648;SDS011;59492;45.638;11.714;2022-12-29T16:42:34;18.50;;;10.80;;
71648;SDS011;59492;45.638;11.714;2022-12-29T16:50:37;17.40;;;11.30;;
71648;SDS011;59492;45.638;11.714;2022-12-29T16:53:21;13.60;;;10.30;;
71648;SDS011;59492;45.638;11.714;2022-12-29T16:56:02;11.70;;;9.40;;
71648;SDS011;59492;45.638;11.714;2022-12-29T16:58:32;17.40;;;10.70;;
71648;SDS011;59492;45.638;11.714;2022-12-29T17:01:00;14.10;;;10.50;;
71648;SDS011;59492;45.638;11.714;2022-12-29T17:03:35;16.20;;;10.30;;
71648;SDS011;59492;45.638;11.714;2022-12-29T17:06:05;13.90;;;10.90;;
71648;SDS011;59492;45.638;11.714;2022-12-29T17:08:42;14.60;;;10.20;;
71648;SDS011;59492;45.638;11.714;2022-12-29T17:11:28;13.40;;;10.80;;
71648;SDS011;59492;45.638;11.714;2022-12-29T17:17:09;13.90;;;10.20;;
71648;SDS011;59492;45.638;11.714;2022-12-29T17:20:03;12.60;;;9.30;;
71648;SDS011;59492;45.638;11.714;2022-12-29T17:22:49;12.40;;;9.40;;
71648;SDS011;59492;45.638;11.714;2022-12-29T17:25:29;13.60;;;9.70;;
71648;SDS011;59492;45.638;11.714;2022-12-29T17:27:59;15.60;;;10.30;;
71648;SDS011;59492;45.638;11.714;2022-12-29T17:30:28;13.70;;;9.70;;